createdAt,value
2022-09-09T00:02:30.089Z,3.65
2022-09-09T00:05:20.695Z,3.20
2022-09-09T00:07:52.172Z,3.20
2022-09-09T00:10:44.827Z,3.80
2022-09-09T00:13:35.331Z,3.15
2022-09-09T00:16:11.578Z,2.70
2022-09-09T00:19:13.560Z,3.22
2022-09-09T00:22:05.661Z,3.33
2022-09-09T00:24:46.398Z,3.40
2022-09-09T00:27:33.124Z,3.17
2022-09-09T00:30:24.994Z,3.28
2022-09-09T00:32:59.475Z,3.05
2022-09-09T00:35:35.722Z,3.40
2022-09-09T00:38:12.702Z,3.28
2022-09-09T00:40:53.584Z,3.53
2022-09-09T00:43:33.525Z,3.88
2022-09-09T00:46:03.667Z,3.00
2022-09-09T00:48:59.827Z,3.17
2022-09-09T00:51:51.955Z,2.85
2022-09-09T00:54:28.637Z,2.97
2022-09-09T00:57:32.859Z,3.88
2022-09-09T01:03:08.505Z,3.15
2022-09-09T01:05:39.975Z,3.20
2022-09-09T01:08:18.578Z,3.63
2022-09-09T01:10:56.704Z,3.40
2022-09-09T01:13:32.641Z,3.45
2022-09-09T01:16:09.439Z,2.72
2022-09-09T01:18:47.408Z,3.58
2022-09-09T01:21:29.292Z,2.67
2022-09-09T01:24:06.888Z,3.38
2022-09-09T01:26:57.901Z,3.28
2022-09-09T01:29:27.826Z,3.00
2022-09-09T01:32:24.684Z,2.80
2022-09-09T01:34:53.567Z,3.33
2022-09-09T01:37:21.735Z,2.92
2022-09-09T01:39:49.160Z,3.05
2022-09-09T01:42:18.936Z,2.58
2022-09-09T01:44:46.884Z,3.55
2022-09-09T01:47:17.202Z,3.20
2022-09-09T01:50:17.598Z,2.97
2022-09-09T01:52:49.717Z,2.42
2022-09-09T01:55:32.604Z,2.60
2022-09-09T01:58:07.872Z,3.08
2022-09-09T02:00:42.930Z,2.42
2022-09-09T02:03:18.861Z,2.15
2022-09-09T02:06:11.430Z,2.60
2022-09-09T02:08:50.171Z,2.78
2022-09-09T02:11:22.905Z,3.50
2022-09-09T02:14:17.631Z,3.08
2022-09-09T02:16:58.490Z,2.60
2022-09-09T02:19:41.581Z,2.75
2022-09-09T02:22:27.693Z,2.70
2022-09-09T02:25:00.332Z,2.25
2022-09-09T02:27:30.927Z,2.72
2022-09-09T02:30:03.794Z,2.45
2022-09-09T02:32:41.127Z,3.03
2022-09-09T02:35:19.402Z,2.35
2022-09-09T02:37:51.310Z,2.72
2022-09-09T02:40:19.216Z,2.60
2022-09-09T02:42:51.439Z,3.17
2022-09-09T02:45:26.628Z,2.97
2022-09-09T02:48:00.231Z,2.30
2022-09-09T02:50:35.641Z,2.92
2022-09-09T02:53:16.367Z,3.08
2022-09-09T02:55:56.916Z,3.00
2022-09-09T02:58:24.730Z,3.70
2022-09-09T03:01:20.323Z,3.96
2022-09-09T03:03:48.962Z,4.47
2022-09-09T03:06:17.922Z,4.22
2022-09-09T03:08:51.258Z,4.50
2022-09-09T03:11:24.625Z,3.00
2022-09-09T03:13:53.002Z,3.08
2022-09-09T03:16:22.786Z,3.22
2022-09-09T03:18:52.440Z,3.28
2022-09-09T03:21:21.166Z,3.42
2022-09-09T03:23:52.403Z,2.88
2022-09-09T03:26:22.037Z,3.17
2022-09-09T03:28:51.023Z,2.53
2022-09-09T03:31:22.555Z,2.97
2022-09-09T03:33:51.714Z,3.00
2022-09-09T03:36:20.765Z,3.03
2022-09-09T03:38:47.991Z,3.00
2022-09-09T03:41:15.655Z,2.75
2022-09-09T03:43:43.725Z,2.75
2022-09-09T03:46:10.917Z,4.20
2022-09-09T03:48:38.758Z,2.45
2022-09-09T03:51:06.599Z,2.47
2022-09-09T03:53:35.544Z,3.03
2022-09-09T03:56:04.677Z,3.25
2022-09-09T03:58:35.401Z,2.97
2022-09-09T04:01:14.697Z,3.72
2022-09-09T04:03:43.980Z,3.13
2022-09-09T04:06:14.562Z,3.63
2022-09-09T04:08:43.950Z,3.42
2022-09-09T04:11:11.232Z,2.72
2022-09-09T04:13:42.889Z,3.17
2022-09-09T04:16:14.628Z,2.75
2022-09-09T04:18:43.736Z,2.80
2022-09-09T04:21:13.461Z,2.60
2022-09-09T04:23:44.385Z,3.03
2022-09-09T04:26:14.994Z,2.88
2022-09-09T04:28:48.391Z,2.90
2022-09-09T04:31:30.567Z,3.08
2022-09-09T04:33:58.428Z,3.00
2022-09-09T04:36:30.192Z,2.75
2022-09-09T04:39:01.164Z,2.83
2022-09-09T04:41:28.885Z,3.15
2022-09-09T04:43:58.507Z,2.97
2022-09-09T04:46:26.557Z,3.05
2022-09-09T04:48:53.981Z,3.58
2022-09-09T04:51:23.322Z,2.50
2022-09-09T04:53:52.602Z,3.10
2022-09-09T04:56:24.247Z,4.25
2022-09-09T04:58:54.308Z,2.22
2022-09-09T05:01:25.578Z,2.53
2022-09-09T05:03:54.641Z,2.50
2022-09-09T05:06:24.163Z,2.50
2022-09-09T05:08:56.058Z,2.65
2022-09-09T05:11:31.565Z,2.40
2022-09-09T05:14:07.453Z,2.25
2022-09-09T05:16:36.133Z,2.22
2022-09-09T05:19:04.535Z,2.47
2022-09-09T05:21:51.365Z,3.20
2022-09-09T05:24:24.587Z,2.50
2022-09-09T05:26:54.970Z,3.03
2022-09-09T05:29:22.504Z,2.70
2022-09-09T05:31:49.946Z,2.40
2022-09-09T05:34:21.958Z,2.65
2022-09-09T05:36:51.193Z,2.85
2022-09-09T05:39:20.472Z,2.95
2022-09-09T05:41:47.646Z,2.70
2022-09-09T05:44:14.990Z,2.65
2022-09-09T05:46:42.999Z,2.70
2022-09-09T05:49:11.348Z,2.80
2022-09-09T05:51:41.686Z,2.45
2022-09-09T05:54:13.227Z,2.88
2022-09-09T05:56:52.099Z,2.30
2022-09-09T05:59:22.968Z,2.55
2022-09-09T06:01:52.107Z,2.50
2022-09-09T06:04:34.438Z,2.90
2022-09-09T06:07:08.469Z,2.58
2022-09-09T06:09:39.400Z,2.88
2022-09-09T06:12:10.534Z,2.35
2022-09-09T06:14:41.134Z,3.55
2022-09-09T06:17:10.796Z,3.00
2022-09-09T06:19:41.135Z,3.10
2022-09-09T06:22:10.954Z,3.03
2022-09-09T06:24:41.153Z,2.53
2022-09-09T06:27:12.073Z,2.22
2022-09-09T06:29:41.596Z,2.38
2022-09-09T06:32:10.020Z,3.13
2022-09-09T06:34:37.973Z,2.80
2022-09-09T06:37:05.925Z,2.92
2022-09-09T06:42:10.835Z,3.15
2022-09-09T06:44:56.501Z,3.00
2022-09-09T06:47:48.773Z,3.22
2022-09-09T06:50:19.548Z,2.95
2022-09-09T06:52:49.028Z,3.28
2022-09-09T06:55:18.862Z,2.90
2022-09-09T06:57:46.483Z,3.05
2022-09-09T07:00:19.049Z,3.40
2022-09-09T07:02:46.670Z,3.55
2022-09-09T07:05:16.766Z,3.45
2022-09-09T07:07:46.483Z,3.65
2022-09-09T07:10:17.784Z,3.67
2022-09-09T07:12:56.199Z,2.88
2022-09-09T07:15:26.138Z,3.05
2022-09-09T07:17:55.192Z,4.70
2022-09-09T07:20:23.716Z,2.67
2022-09-09T07:23:01.868Z,2.97
2022-09-09T07:25:51.598Z,3.13
2022-09-09T07:28:19.038Z,2.88
2022-09-09T07:31:00.294Z,3.85
2022-09-09T07:36:11.223Z,3.08
2022-09-09T07:38:52.567Z,3.08
2022-09-09T07:41:25.902Z,3.65
2022-09-09T07:43:56.882Z,3.38
2022-09-09T07:46:29.982Z,3.30
2022-09-09T07:49:10.210Z,4.03
2022-09-09T07:51:45.969Z,3.33
2022-09-09T07:54:27.538Z,3.13
2022-09-09T07:57:03.974Z,3.42
2022-09-09T07:59:39.674Z,3.47
2022-09-09T08:07:24.600Z,3.92
2022-09-09T08:09:56.946Z,3.72
2022-09-09T08:12:29.426Z,4.97
2022-09-09T08:14:59.452Z,4.70
2022-09-09T08:17:31.650Z,4.28
2022-09-09T08:20:08.062Z,3.88
2022-09-09T08:22:37.578Z,6.25
2022-09-09T08:25:16.252Z,5.72
2022-09-09T08:27:54.192Z,4.55
2022-09-09T08:30:30.108Z,3.13
2022-09-09T08:33:12.579Z,4.25
2022-09-09T08:36:02.167Z,3.65
2022-09-09T08:38:32.871Z,4.10
2022-09-09T08:41:27.496Z,4.50
2022-09-09T08:44:31.787Z,4.53
2022-09-09T08:47:17.779Z,3.65
2022-09-09T08:50:27.248Z,4.53
2022-09-09T08:53:21.801Z,4.87
2022-09-09T08:56:09.843Z,4.28
2022-09-09T08:59:21.741Z,4.50
2022-09-09T09:02:22.208Z,4.50
2022-09-09T09:05:31.750Z,5.60
2022-09-09T09:08:34.741Z,3.30
2022-09-09T09:11:07.926Z,4.50
2022-09-09T09:16:57.150Z,4.40
2022-09-09T09:19:39.981Z,4.22
2022-09-09T09:22:34.208Z,3.10
2022-09-09T09:25:20.455Z,3.20
2022-09-09T09:31:24.748Z,2.67
2022-09-09T09:34:00.605Z,2.97
2022-09-09T09:36:56.880Z,2.80
2022-09-09T09:42:39.326Z,3.00
2022-09-09T09:45:41.774Z,2.80
2022-09-09T09:48:17.752Z,2.80
2022-09-09T09:51:02.183Z,2.60
2022-09-09T09:53:34.995Z,2.38
2022-09-09T09:56:30.842Z,2.88
2022-09-09T09:59:17.827Z,2.90
2022-09-09T10:02:09.561Z,2.35
2022-09-09T10:04:50.644Z,2.35
2022-09-09T10:07:32.264Z,2.00
2022-09-09T10:10:34.396Z,3.58
2022-09-09T10:13:28.131Z,2.65
2022-09-09T10:18:55.995Z,2.65
2022-09-09T10:21:58.995Z,2.60
2022-09-09T10:25:14.611Z,2.77
2022-09-09T10:28:23.869Z,2.30
2022-09-09T10:31:24.984Z,2.58
2022-09-09T10:34:31.661Z,2.05
2022-09-09T10:37:38.415Z,2.95
2022-09-09T10:40:37.782Z,1.98
2022-09-09T10:43:45.644Z,2.40
2022-09-09T10:47:14.187Z,2.55
2022-09-09T10:50:57.201Z,2.50
2022-09-09T10:53:57.851Z,2.65
2022-09-09T10:56:42.233Z,3.80
2022-09-09T10:59:39.698Z,2.83
2022-09-09T11:02:43.076Z,2.92
2022-09-09T11:05:28.318Z,2.15
2022-09-09T11:08:17.294Z,1.95
2022-09-09T11:11:25.891Z,2.10
2022-09-09T11:14:25.059Z,1.80
2022-09-09T11:17:03.718Z,1.75
2022-09-09T11:19:59.227Z,2.00
2022-09-09T11:22:52.064Z,1.80
2022-09-09T11:25:49.327Z,1.88
2022-09-09T11:29:04.609Z,2.28
2022-09-09T11:32:17.334Z,2.10
2022-09-09T11:35:33.744Z,2.30
2022-09-09T11:38:32.678Z,1.70
2022-09-09T11:41:36.405Z,1.85
2022-09-09T11:47:27.924Z,1.67
2022-09-09T11:50:24.467Z,1.90
2022-09-09T11:53:26.853Z,2.00
2022-09-09T11:56:13.344Z,2.30
2022-09-09T11:59:22.064Z,2.10
2022-09-09T12:02:51.907Z,1.45
2022-09-09T12:05:23.335Z,1.80
2022-09-09T12:07:58.590Z,1.98
2022-09-09T12:10:42.806Z,1.92
2022-09-09T12:13:21.167Z,1.50
2022-09-09T12:16:28.281Z,1.73
2022-09-09T12:19:27.110Z,2.50
2022-09-09T12:22:21.752Z,3.17
2022-09-09T12:25:28.577Z,2.00
2022-09-09T12:28:29.591Z,1.70
2022-09-09T12:31:51.409Z,1.60
2022-09-09T12:34:51.726Z,1.70
2022-09-09T12:37:38.037Z,2.10
2022-09-09T12:41:00.305Z,1.67
2022-09-09T12:43:32.744Z,2.00
2022-09-09T12:46:33.645Z,1.35
2022-09-09T12:49:35.676Z,1.65
2022-09-09T12:52:18.690Z,2.00
2022-09-09T12:55:22.994Z,2.05
2022-09-09T12:58:00.531Z,1.33
2022-09-09T13:00:38.645Z,1.65
2022-09-09T13:03:40.307Z,2.17
2022-09-09T13:06:36.509Z,2.40
2022-09-09T13:09:31.460Z,1.70
2022-09-09T13:12:21.008Z,1.50
2022-09-09T13:15:19.533Z,1.60
2022-09-09T13:18:13.902Z,2.17
2022-09-09T13:20:55.197Z,1.45
2022-09-09T13:26:46.828Z,2.75
2022-09-09T13:29:27.746Z,2.58
2022-09-09T13:32:23.174Z,1.60
2022-09-09T13:35:11.242Z,1.95
2022-09-09T13:37:47.836Z,2.30
2022-09-09T13:40:29.382Z,1.73
2022-09-09T13:43:17.461Z,1.92
2022-09-09T13:46:15.278Z,2.05
2022-09-09T13:48:58.690Z,1.95
2022-09-09T13:51:51.077Z,1.52
2022-09-09T13:54:42.904Z,1.90
2022-09-09T13:57:38.994Z,1.83
2022-09-09T14:00:16.623Z,1.30
2022-09-09T14:03:03.859Z,1.85
2022-09-09T14:05:40.251Z,2.08
2022-09-09T14:08:31.820Z,2.28
2022-09-09T14:11:15.315Z,2.00
2022-09-09T14:14:13.360Z,2.03
2022-09-09T14:16:48.887Z,1.58
2022-09-09T14:19:38.689Z,1.95
2022-09-09T14:22:16.301Z,1.70
2022-09-09T14:25:04.794Z,1.77
2022-09-09T14:30:46.484Z,1.20
2022-09-09T14:33:30.553Z,1.92
2022-09-09T14:36:11.503Z,1.40
2022-09-09T14:39:01.377Z,1.20
2022-09-09T14:41:46.693Z,1.92
2022-09-09T14:44:29.359Z,1.50
2022-09-09T14:47:06.944Z,1.40
2022-09-09T14:49:47.222Z,1.40
2022-09-09T14:52:33.054Z,1.42
2022-09-09T14:55:14.937Z,1.60
2022-09-09T14:58:00.144Z,1.88
2022-09-09T15:00:42.653Z,1.90
2022-09-09T15:03:30.121Z,2.22
2022-09-09T15:06:42.693Z,1.20
2022-09-09T15:09:24.176Z,2.15
2022-09-09T15:12:15.825Z,1.95
2022-09-09T15:15:03.490Z,1.88
2022-09-09T15:17:46.545Z,1.60
2022-09-09T15:20:25.005Z,2.03
2022-09-09T15:23:07.220Z,1.50
2022-09-09T15:25:58.155Z,1.83
2022-09-09T15:28:45.396Z,1.38
2022-09-09T15:31:36.153Z,1.20
2022-09-09T15:34:36.470Z,1.20
2022-09-09T15:37:24.297Z,1.85
2022-09-09T15:40:08.072Z,1.58
2022-09-09T15:42:47.109Z,1.77
2022-09-09T15:45:33.808Z,1.50
2022-09-09T15:48:07.515Z,0.88
2022-09-09T15:50:42.774Z,1.23
2022-09-09T15:53:26.211Z,1.27
2022-09-09T15:59:13.499Z,1.23
2022-09-09T16:01:47.431Z,1.25
2022-09-09T16:04:29.654Z,1.50
2022-09-09T16:07:07.931Z,1.20
2022-09-09T16:09:45.437Z,1.20
2022-09-09T16:12:15.753Z,1.05
2022-09-09T16:14:43.161Z,1.23
2022-09-09T16:17:24.692Z,1.45
2022-09-09T16:19:55.743Z,1.15
2022-09-09T16:22:32.210Z,1.42
2022-09-09T16:25:04.698Z,0.95
2022-09-09T16:27:37.215Z,1.27
2022-09-09T16:30:41.751Z,1.23
2022-09-09T16:33:21.149Z,1.90
2022-09-09T16:35:53.243Z,1.35
2022-09-09T16:38:31.998Z,1.15
2022-09-09T16:41:06.418Z,1.40
2022-09-09T16:43:58.874Z,1.40
2022-09-09T16:46:37.302Z,1.25
2022-09-09T16:49:09.200Z,1.08
2022-09-09T16:54:38.797Z,1.20
2022-09-09T16:57:11.756Z,1.88
2022-09-09T16:59:55.539Z,1.75
2022-09-09T17:02:28.361Z,1.38
2022-09-09T17:05:33.652Z,1.00
2022-09-09T17:08:07.011Z,0.98
2022-09-09T17:10:47.231Z,1.10
2022-09-09T17:13:23.739Z,1.23
2022-09-09T17:16:08.778Z,0.98
2022-09-09T17:18:47.240Z,1.40
2022-09-09T17:21:27.391Z,1.10
2022-09-09T17:24:05.609Z,1.10
2022-09-09T17:26:39.353Z,1.50
2022-09-09T17:29:14.343Z,1.27
2022-09-09T17:31:55.724Z,0.88
2022-09-09T17:34:31.195Z,1.17
2022-09-09T17:37:03.404Z,1.15
2022-09-09T17:39:54.730Z,1.13
2022-09-09T17:42:24.942Z,1.20
2022-09-09T17:45:09.861Z,1.10
2022-09-09T17:47:50.897Z,1.45
2022-09-09T17:50:38.254Z,1.02
2022-09-09T17:53:16.569Z,1.52
2022-09-09T17:55:51.011Z,1.13
2022-09-09T17:58:39.363Z,0.93
2022-09-09T18:01:24.803Z,1.33
2022-09-09T18:04:09.540Z,2.10
2022-09-09T18:06:39.817Z,1.50
2022-09-09T18:09:16.573Z,1.27
2022-09-09T18:12:03.879Z,1.67
2022-09-09T18:14:37.412Z,2.47
2022-09-09T18:17:14.974Z,1.63
2022-09-09T18:19:54.430Z,1.30
2022-09-09T18:22:34.654Z,1.30
2022-09-09T18:25:08.315Z,1.20
2022-09-09T18:27:52.006Z,2.95
2022-09-09T18:30:28.200Z,2.38
2022-09-09T18:32:59.052Z,2.47
2022-09-09T18:35:26.715Z,2.17
2022-09-09T18:38:09.348Z,2.63
2022-09-09T18:40:49.824Z,4.90
2022-09-09T18:43:20.543Z,2.10
2022-09-09T18:46:00.448Z,1.98
2022-09-09T18:48:37.469Z,1.52
2022-09-09T18:51:15.316Z,1.85
2022-09-09T18:53:53.216Z,1.42
2022-09-09T18:56:30.162Z,1.35
2022-09-09T18:59:18.466Z,1.17
2022-09-09T19:01:50.700Z,13.70
2022-09-09T19:04:30.572Z,3.72
2022-09-09T19:07:08.178Z,2.58
2022-09-09T19:12:27.096Z,1.50
2022-09-09T19:15:00.537Z,2.55
2022-09-09T19:17:33.820Z,2.13
2022-09-09T19:20:08.562Z,2.47
2022-09-09T19:22:40.936Z,1.80
2022-09-09T19:25:15.861Z,2.08
2022-09-09T19:27:52.382Z,1.27
2022-09-09T19:30:25.810Z,1.45
2022-09-09T19:33:12.293Z,1.10
2022-09-09T19:36:04.008Z,1.02
2022-09-09T19:38:53.420Z,1.35
2022-09-09T19:41:46.825Z,1.45
2022-09-09T19:44:19.510Z,1.02
2022-09-09T19:46:48.205Z,2.22
2022-09-09T19:49:20.502Z,1.63
2022-09-09T19:51:57.970Z,2.30
2022-09-09T19:54:36.559Z,2.13
2022-09-09T19:57:10.823Z,2.40
2022-09-09T20:00:01.056Z,1.98
2022-09-09T20:02:33.828Z,1.35
2022-09-09T20:05:12.804Z,1.83
2022-09-09T20:07:45.129Z,0.93
2022-09-09T20:10:17.029Z,2.03
2022-09-09T20:12:49.018Z,1.75
2022-09-09T20:15:30.379Z,1.20
2022-09-09T20:18:00.063Z,1.42
2022-09-09T20:20:30.434Z,1.40
2022-09-09T20:22:59.700Z,2.13
2022-09-09T20:25:32.104Z,1.17
2022-09-09T20:28:04.755Z,1.25
2022-09-09T20:30:45.883Z,1.20
2022-09-09T20:33:43.722Z,1.10
2022-09-09T20:36:30.614Z,1.00
2022-09-09T20:39:09.002Z,1.13
2022-09-09T20:41:52.628Z,1.20
2022-09-09T20:46:57.980Z,1.60
2022-09-09T20:49:38.031Z,1.50
2022-09-09T20:52:13.241Z,1.27
2022-09-09T20:54:49.543Z,1.27
2022-09-09T20:57:22.392Z,0.95
2022-09-09T20:59:58.267Z,1.45
2022-09-09T21:02:32.063Z,1.40
2022-09-09T21:05:04.674Z,1.75
2022-09-09T21:07:38.388Z,1.30
2022-09-09T21:10:15.113Z,1.40
2022-09-09T21:12:56.236Z,1.35
2022-09-09T21:15:40.362Z,1.42
2022-09-09T21:18:21.030Z,1.42
2022-09-09T21:20:53.942Z,1.77
2022-09-09T21:23:28.224Z,1.08
2022-09-09T21:26:01.253Z,1.13
2022-09-09T21:28:44.023Z,1.35
2022-09-09T21:31:28.597Z,1.75
2022-09-09T21:34:04.701Z,1.92
2022-09-09T21:36:37.076Z,1.45
2022-09-09T21:39:19.244Z,1.30
2022-09-09T21:42:13.837Z,1.20
2022-09-09T21:44:47.304Z,1.80
2022-09-09T21:47:33.312Z,1.30
2022-09-09T21:50:17.213Z,1.20
2022-09-09T21:52:51.695Z,1.10
2022-09-09T21:55:31.791Z,1.38
2022-09-09T21:58:24.637Z,1.48
2022-09-09T22:01:08.921Z,1.90
2022-09-09T22:03:58.770Z,1.90
2022-09-09T22:06:39.131Z,1.52
2022-09-09T22:09:18.153Z,2.17
2022-09-09T22:12:03.845Z,2.03
2022-09-09T22:14:49.368Z,1.33
2022-09-09T22:17:33.044Z,1.38
2022-09-09T22:22:59.188Z,1.27
2022-09-09T22:25:50.806Z,1.40
2022-09-09T22:28:37.945Z,1.58
2022-09-09T22:31:38.817Z,1.85
2022-09-09T22:34:44.564Z,2.22
2022-09-09T22:37:50.069Z,1.85
2022-09-09T22:40:40.722Z,1.65
2022-09-09T22:43:23.935Z,1.63
2022-09-09T22:46:06.777Z,1.55
2022-09-09T22:48:46.082Z,1.40
2022-09-09T22:51:21.547Z,1.90
2022-09-09T22:54:24.618Z,1.40
2022-09-09T22:57:12.698Z,1.65
2022-09-09T22:59:47.769Z,1.50
2022-09-09T23:02:22.215Z,1.40
2022-09-09T23:05:05.314Z,1.15
2022-09-09T23:07:58.867Z,1.75
2022-09-09T23:10:38.117Z,1.48
2022-09-09T23:13:09.853Z,1.30
2022-09-09T23:15:40.555Z,1.50
2022-09-09T23:18:09.973Z,1.65
2022-09-09T23:20:45.743Z,2.42
2022-09-09T23:23:24.132Z,1.50
2022-09-09T23:25:57.698Z,1.75
2022-09-09T23:28:28.164Z,1.67
2022-09-09T23:31:06.234Z,1.53
2022-09-09T23:33:52.360Z,1.80
2022-09-09T23:36:39.732Z,2.40
2022-09-09T23:39:23.385Z,2.15
2022-09-09T23:41:54.202Z,2.47
2022-09-09T23:44:52.979Z,2.15
2022-09-09T23:47:54.325Z,1.80
2022-09-09T23:50:45.439Z,2.25
2022-09-09T23:53:16.364Z,1.88
2022-09-09T23:55:51.622Z,2.03
2022-09-09T23:58:57.602Z,1.98
